Agnew, MI

2:32 PM EST on March 01, 2017 (GMT -0500)
pigeon creek | | Change Station

Elev 614 ft 42.95 °N, 86.22 °W | Updated 5 seconds ago

Snow
Snow
36.1 °F
Feels Like 22 °F
N
35.3
Wind Variable Wind from SW
Gusts 37.4 mph

Today
High -- | Low -- °F
--% Chance of Precip.
Yesterday
High -- | Low -- °F
Precip. -- in
Pressure 29.48 in
Visibility 1.5 miles
Clouds Mostly Cloudy 800 ft
Overcast 1500 ft
Windchill 22 °F
Dew Point 20 °F
Humidity 52%
Rainfall 0.15 in
Snow Depth Not available.
7:20 AM 6:34 PM
Waxing Crescent, 13% visible
METAR KMKG 011855Z 31014G28KT 1 1/2SM -SN BR BKN008 OVC015 01/00 A2946 RMK AO2 PK WND 30031/1830 SFC VIS 1 3/4 SLP981 RAE53 SNB53 P0000 T00110000
Pressure 29.48 in
Visibility 1.5 miles
Clouds Mostly Cloudy 800 ft
Overcast 1500 ft
Windchill 22 °F
Dew Point 20 °F
Humidity 52%
Rainfall 0.15 in
Snow Depth Not available.
7:20 AM 6:34 PM
Waxing Crescent, 13% visible
METAR KMKG 011855Z 31014G28KT 1 1/2SM -SN BR BKN008 OVC015 01/00 A2946 RMK AO2 PK WND 30031/1830 SFC VIS 1 3/4 SLP981 RAE53 SNB53 P0000 T00110000

Get Your Daily Forecast Email!

Thanks for signing up!

Be on the lookout for a verification email in your inbox.

You'll start receiving the daily forecast at 8 AM.

×

10-Day Weather Forecast

Almanac

Astronomy

Mar. 01, 2017 Rise Set
Actual Time
Civil Twilight
Nautical Twilight
Astronomical Twilight
Moon
Length of Visible Light
Length of Day
Tomorrow will be .
, % of the Moon is Illuminated

Today's Extremes

State Highs State Lows

Community

WunderPhotos

Upload Photos

1,962,540 photos uploaded!

WunderBlog® & News

Nearby

Air Quality

  Air Quality AQ Index Pollutant
Not available.

Snow Depth

Station Depth Elevation

Earthquake Activity

City Distance Mag. Time & Date
Minimum magnitude displayed is 2.5.

Coastal Water Temperatures

Place Temperature

Stations

Nearby Weather Stations

Station Location Temp. Windchill Dew Point Humidity Wind Precip. Elev Updated Type
                   

Watches & Warnings

There are currently no watches in effect.